首页
METAR-TAF:

METAR-TAF

机场 :

印第安纳波利斯国际机场

印第安納波利斯, 印第安纳州, 美国

纬度: 39-43-30N, 经度: 086-16-55W, 海拔: 243米

当前天气观测

该预报发布于34分钟前的20:54 UTC
风速14节,风向西转西南
温度 18°C
湿度 45%
气压 1018 hPa
能見度: 16.1公里
少量云层高于25000英尺

METAR: KIND 222054Z 25014KT 10SM FEW250 18/06 A3007 RMK AO2 SLP184 T01830056 55006

时间: 17:28 (21:28 UTC)

预报

该预报发布于58分钟前的20:30 UTC
预报有效从22日的 21点(UTC)到 23日的 24点(UTC)
风速12节,风向西南,有时为19节阵风
能見度: 10公里
少量云层高于25000英尺
从 23日的 0100点(UTC)
风速6节,风向西转西南
能見度: 10公里
少量云层高于25000英尺
从 23日的 1300点(UTC)
风速7节,风向北转西北
能見度: 10公里
少量云层高于25000英尺

TAF: KIND 222030Z 2221/2324 23012G19KT P6SM FEW250 FM230100 25006KT P6SM FEW250 FM231300 33007KT P6SM FEW250

超过4000个机场的气象观测和天气预报(METAR&TAF报告)。

可查询的气象台以黄色和红色小点在地图上表示。

将鼠标移到小点上方,可查看气象台名称。

然后点击查看天气观测和预报。

如需切换地图:点击带黑十字的绿色按钮放大地图;点击带横线的绿色按钮缩小地图;或者点击绿色箭头查看邻近地区的地图。


METAR-TAF: